Time;durP1;ratioP1;P1;durP2;ratioP2;P2;SDS_P1;SDS_P2;PMS_P1;PMS_P2;Temp;Humidity;BMP_temperature;BMP_pressure;BME280_temperature;BME280_humidity;BME280_pressure;Samples;Min_cycle;Max_cycle;Signal;HPM_P1;HPM_P2
2021/03/26 00:00:34;;;;;;;16.48;12.13;;;3.70;99.90;;;;;;5033352;28;20026;-78
2021/03/26 00:03:00;;;;;;;15.93;11.75;;;3.40;99.90;;;;;;5014487;28;20022;-78
2021/03/26 00:05:26;;;;;;;15.60;12.50;;;3.40;99.90;;;;;;5012827;28;20030;-78
2021/03/26 00:07:52;;;;;;;17.35;12.20;;;3.40;99.90;;;;;;5013715;28;20034;-78
2021/03/26 00:10:20;;;;;;;20.67;13.75;;;3.50;99.90;;;;;;5014212;28;20024;-78
2021/03/26 00:12:46;;;;;;;17.73;11.77;;;3.70;99.90;;;;;;5014260;28;20046;-78
2021/03/26 00:15:12;;;;;;;20.42;12.88;;;3.90;99.90;;;;;;5014244;28;20018;-78
2021/03/26 00:17:38;;;;;;;23.98;15.50;;;3.70;99.90;;;;;;5014079;28;20025;-78
2021/03/26 00:20:06;;;;;;;21.30;16.10;;;3.40;99.90;;;;;;5013932;28;20021;-78
2021/03/26 00:22:32;;;;;;;21.48;16.20;;;3.40;99.90;;;;;;5013548;28;20103;-78
2021/03/26 00:24:57;;;;;;;28.08;21.38;;;3.40;99.90;;;;;;5013951;28;20060;-78
2021/03/26 00:27:23;;;;;;;26.63;19.48;;;3.40;99.90;;;;;;5013910;28;20108;-78
2021/03/26 00:29:49;;;;;;;58.65;43.35;;;3.50;99.90;;;;;;5022138;28;20049;-78
2021/03/26 00:32:15;;;;;;;32.15;25.23;;;3.50;99.90;;;;;;5033636;28;20025;-78
2021/03/26 00:34:41;;;;;;;30.00;21.45;;;3.60;99.90;;;;;;5033297;28;20029;-78
2021/03/26 00:37:07;;;;;;;14.55;11.68;;;3.60;99.90;;;;;;5033236;28;20022;-79
2021/03/26 00:39:32;;;;;;;10.80;9.05;;;3.70;99.90;;;;;;5032084;28;20029;-79
2021/03/26 00:41:58;;;;;;;11.73;10.43;;;3.30;99.90;;;;;;5033403;28;20029;-78
2021/03/26 00:44:24;;;;;;;18.63;13.00;;;3.10;99.90;;;;;;5031790;28;20103;-78
2021/03/26 00:46:49;;;;;;;16.58;13.75;;;2.90;99.90;;;;;;5033072;28;20032;-78
2021/03/26 00:49:15;;;;;;;19.05;14.38;;;3.00;99.90;;;;;;5033269;28;20083;-78
2021/03/26 00:51:42;;;;;;;17.13;11.55;;;3.20;99.90;;;;;;5032319;28;20030;-78
2021/03/26 00:54:08;;;;;;;13.23;11.07;;;3.40;99.90;;;;;;5033144;28;20029;-78
2021/03/26 00:56:34;;;;;;;20.20;13.68;;;3.40;99.90;;;;;;5033147;28;20025;-78
2021/03/26 00:58:59;;;;;;;19.10;13.85;;;3.60;99.90;;;;;;5033065;28;20091;-78
2021/03/26 01:01:25;;;;;;;20.58;14.63;;;3.50;99.90;;;;;;5033145;28;20026;-78
2021/03/26 01:03:51;;;;;;;24.55;16.35;;;3.50;99.90;;;;;;5032801;28;20029;-78
2021/03/26 01:06:17;;;;;;;24.92;17.05;;;3.40;99.90;;;;;;5032579;28;20025;-78
2021/03/26 01:08:43;;;;;;;25.27;18.10;;;3.40;99.90;;;;;;5032893;28;20033;-78
2021/03/26 01:11:17;;;;;;;20.63;14.30;;;3.40;99.90;;;;;;5031812;28;20037;-78
2021/03/26 01:13:44;;;;;;;21.80;15.80;;;3.30;99.90;;;;;;5032858;28;20038;-78
2021/03/26 01:16:11;;;;;;;29.90;18.95;;;3.20;99.90;;;;;;5032288;28;20025;-78
2021/03/26 01:18:41;;;;;;;25.90;16.13;;;3.10;99.90;;;;;;5032501;28;20029;-78
2021/03/26 01:21:14;;;;;;;21.02;14.40;;;3.10;99.90;;;;;;5032712;28;20033;-78
2021/03/26 01:23:42;;;;;;;15.85;11.05;;;3.10;99.90;;;;;;5032621;28;20061;-78
2021/03/26 01:26:08;;;;;;;15.43;10.93;;;3.40;99.90;;;;;;5032644;28;20032;-78
2021/03/26 01:28:33;;;;;;;12.50;9.60;;;3.30;99.90;;;;;;5032054;28;20026;-78
2021/03/26 01:31:00;;;;;;;13.57;9.40;;;3.40;99.90;;;;;;5031471;28;20095;-78
2021/03/26 01:33:27;;;;;;;10.32;8.30;;;3.30;99.90;;;;;;5031545;28;20044;-78
2021/03/26 01:35:54;;;;;;;10.20;7.97;;;2.90;99.90;;;;;;5032024;28;20034;-78
2021/03/26 01:38:20;;;;;;;12.38;8.32;;;2.60;99.90;;;;;;5032547;28;20436;-78
2021/03/26 01:40:51;;;;;;;12.32;9.50;;;2.60;99.90;;;;;;5032367;28;20032;-78
2021/03/26 01:43:20;;;;;;;14.60;11.68;;;2.60;99.90;;;;;;5032535;28;20076;-78
2021/03/26 01:45:46;;;;;;;15.95;10.13;;;2.80;99.90;;;;;;5031786;28;20489;-78
2021/03/26 01:48:20;;;;;;;16.83;10.13;;;2.90;99.90;;;;;;5032379;28;20057;-78
2021/03/26 01:50:46;;;;;;;12.07;9.23;;;3.10;99.90;;;;;;5030761;28;20029;-78
2021/03/26 01:53:12;;;;;;;10.73;8.50;;;3.20;99.90;;;;;;5032309;28;20121;-78
2021/03/26 01:55:41;;;;;;;11.18;8.73;;;3.30;99.90;;;;;;5032395;28;20033;-78
2021/03/26 01:58:08;;;;;;;10.93;8.68;;;3.10;99.90;;;;;;5032366;28;20032;-78
2021/03/26 02:00:41;;;;;;;10.65;8.35;;;2.90;99.90;;;;;;5032261;28;20079;-78
2021/03/26 02:03:14;;;;;;;11.55;8.75;;;2.90;99.90;;;;;;5031914;28;20033;-78
2021/03/26 02:05:40;;;;;;;14.07;11.00;;;2.60;99.90;;;;;;5032193;28;20037;-78
2021/03/26 02:08:06;;;;;;;16.02;11.70;;;2.60;99.90;;;;;;5032119;28;20037;-78
2021/03/26 02:10:33;;;;;;;8.35;7.55;;;2.50;99.90;;;;;;5031058;28;20022;-78
2021/03/26 02:13:07;;;;;;;34.97;23.50;;;2.50;99.90;;;;;;5032071;28;20033;-78
2021/03/26 02:15:41;;;;;;;16.20;10.50;;;2.40;99.90;;;;;;5032220;28;20512;-78
2021/03/26 02:18:19;;;;;;;13.98;11.30;;;2.40;99.90;;;;;;5027335;28;20463;-78
2021/03/26 02:20:51;;;;;;;17.58;11.82;;;2.50;99.90;;;;;;5012379;28;20113;-78
2021/03/26 02:23:21;;;;;;;14.65;10.73;;;2.50;99.90;;;;;;5017870;28;20511;-78
2021/03/26 02:25:48;;;;;;;12.25;9.68;;;2.70;99.90;;;;;;5032210;28;20025;-78
2021/03/26 02:28:15;;;;;;;17.10;13.23;;;2.90;99.90;;;;;;5032329;28;20440;-79
2021/03/26 02:30:47;;;;;;;13.02;10.70;;;2.70;99.90;;;;;;5031749;28;20049;-78
2021/03/26 02:33:14;;;;;;;12.27;9.73;;;2.30;99.90;;;;;;5030322;28;20057;-78
2021/03/26 02:35:44;;;;;;;12.38;10.23;;;2.40;99.90;;;;;;5032084;28;20029;-78
2021/03/26 02:38:09;;;;;;;11.95;8.85;;;2.60;99.90;;;;;;5031674;28;20497;-77
2021/03/26 02:41:21;;;;;;;13.02;8.23;;;2.80;99.90;;;;;;5031364;28;20044;-78
2021/03/26 02:44:05;;;;;;;10.60;9.30;;;2.70;99.90;;;;;;5035638;28;20029;-78
2021/03/26 02:47:01;;;;;;;14.48;9.63;;;2.50;99.90;;;;;;5032057;28;20369;-78
2021/03/26 02:49:52;;;;;;;19.88;17.58;;;2.40;99.90;;;;;;5035393;28;20018;-78
2021/03/26 02:52:28;;;;;;;13.95;9.52;;;2.40;99.90;;;;;;5035495;28;20024;-78
2021/03/26 02:55:40;;;;;;;12.57;9.88;;;2.50;99.90;;;;;;5035395;28;20032;-78
2021/03/26 02:58:29;;;;;;;11.57;8.50;;;2.60;99.90;;;;;;4974139;28;20686;-78
2021/03/26 03:01:06;;;;;;;11.57;9.50;;;2.80;99.90;;;;;;4974215;28;20035;-78
2021/03/26 03:03:35;;;;;;;10.63;8.35;;;3.00;99.90;;;;;;4974263;28;20054;-78
2021/03/26 03:06:08;;;;;;;11.68;8.60;;;3.10;99.90;;;;;;4974205;28;20538;-78
2021/03/26 03:08:36;;;;;;;12.65;8.85;;;2.90;99.90;;;;;;4974298;28;20038;-78
2021/03/26 03:11:05;;;;;;;11.15;8.77;;;2.90;99.90;;;;;;4973536;28;20035;-78
2021/03/26 03:13:46;;;;;;;9.45;8.15;;;2.90;99.90;;;;;;4974046;28;20063;-78
2021/03/26 03:16:38;;;;;;;10.05;8.05;;;2.90;99.90;;;;;;4957204;28;20035;-78
2021/03/26 03:19:20;;;;;;;11.32;8.38;;;2.80;99.90;;;;;;4897442;29;20045;-78
2021/03/26 03:21:52;;;;;;;9.13;8.20;;;2.70;99.90;;;;;;4897779;29;20044;-78
2021/03/26 03:24:26;;;;;;;9.80;8.02;;;2.70;99.90;;;;;;4897503;29;20120;-78
2021/03/26 03:27:22;;;;;;;8.32;6.90;;;2.80;99.90;;;;;;4897484;29;20630;-78
2021/03/26 03:30:17;;;;;;;9.73;8.00;;;2.70;99.90;;;;;;4897451;29;20043;-78
2021/03/26 03:33:04;;;;;;;9.35;7.85;;;2.60;99.90;;;;;;4902941;29;20402;-78
2021/03/26 03:35:38;;;;;;;11.45;8.07;;;2.60;99.90;;;;;;4954337;29;20121;-78
2021/03/26 03:38:22;;;;;;;12.15;7.00;;;2.80;99.90;;;;;;4954238;29;20031;-78
2021/03/26 03:41:00;;;;;;;10.80;8.77;;;2.80;99.90;;;;;;4938206;29;20027;-78
2021/03/26 03:43:42;;;;;;;10.15;7.85;;;2.90;99.90;;;;;;4938120;29;20039;-78
2021/03/26 03:46:58;;;;;;;13.60;8.65;;;2.70;99.90;;;;;;4953406;29;20090;-78
2021/03/26 03:49:32;;;;;;;11.68;8.95;;;2.50;99.90;;;;;;4937428;29;20043;-79
2021/03/26 03:52:28;;;;;;;11.73;9.07;;;2.60;99.90;;;;;;4953830;28;20489;-78
2021/03/26 03:55:09;;;;;;;12.27;9.82;;;2.80;99.90;;;;;;4945237;28;20035;-78
2021/03/26 03:57:47;;;;;;;14.27;9.38;;;2.90;99.90;;;;;;5033194;28;20017;-78
2021/03/26 04:00:21;;;;;;;10.07;7.45;;;2.80;99.90;;;;;;5033717;28;20158;-78
2021/03/26 04:03:12;;;;;;;12.00;9.68;;;2.70;99.90;;;;;;5034102;28;20096;-78
2021/03/26 04:05:55;;;;;;;11.13;9.25;;;2.60;99.90;;;;;;5034230;28;20052;-78
2021/03/26 04:08:40;;;;;;;12.77;9.25;;;2.70;99.90;;;;;;5033897;28;20030;-78
2021/03/26 04:11:12;;;;;;;9.63;8.52;;;2.70;99.90;;;;;;5034049;28;20071;-78
2021/03/26 04:13:44;;;;;;;12.45;7.85;;;2.70;99.90;;;;;;5033694;28;20270;-78
2021/03/26 04:16:15;;;;;;;10.88;8.77;;;2.90;99.90;;;;;;5033059;28;20048;-78
2021/03/26 04:18:53;;;;;;;6.78;6.03;;;3.00;99.90;;;;;;5033751;28;20033;-78
2021/03/26 04:21:26;;;;;;;9.40;6.93;;;2.60;99.90;;;;;;5032422;28;20036;-78
2021/03/26 04:23:57;;;;;;;12.07;7.78;;;2.40;99.90;;;;;;5033810;28;20029;-78
2021/03/26 04:26:49;;;;;;;7.57;6.70;;;2.30;99.90;;;;;;5033561;28;20029;-78
2021/03/26 04:29:45;;;;;;;9.82;7.32;;;2.40;99.90;;;;;;5033009;28;20396;-78
2021/03/26 04:32:13;;;;;;;8.02;6.72;;;2.60;99.90;;;;;;5033595;28;20061;-79
2021/03/26 04:34:41;;;;;;;10.00;6.70;;;2.70;99.90;;;;;;5033397;28;20047;-78
2021/03/26 04:37:18;;;;;;;10.52;7.65;;;2.60;99.90;;;;;;5033550;28;20056;-79
2021/03/26 04:40:09;;;;;;;11.40;8.48;;;2.50;99.90;;;;;;5032209;28;20029;-79
2021/03/26 04:42:37;;;;;;;48.55;37.00;;;2.60;99.90;;;;;;5033071;28;20028;-78
2021/03/26 04:45:20;;;;;;;17.17;14.20;;;2.60;99.90;;;;;;5032322;28;20029;-78
2021/03/26 04:47:55;;;;;;;11.75;9.07;;;2.60;99.90;;;;;;5032992;28;20033;-78
2021/03/26 04:50:28;;;;;;;10.57;9.43;;;2.80;99.90;;;;;;5033241;28;20096;-78
2021/03/26 04:53:03;;;;;;;12.43;10.05;;;2.90;99.90;;;;;;5031893;28;20033;-79
2021/03/26 04:55:35;;;;;;;10.35;7.88;;;2.90;99.90;;;;;;5033117;28;20396;-78
2021/03/26 04:58:21;;;;;;;10.25;8.35;;;2.80;99.90;;;;;;5032757;28;20029;-78
2021/03/26 05:00:50;;;;;;;12.18;9.00;;;2.60;99.90;;;;;;5033101;28;20021;-78
2021/03/26 05:03:45;;;;;;;9.32;7.60;;;2.50;99.90;;;;;;5032298;28;20059;-78
2021/03/26 05:06:19;;;;;;;8.75;6.80;;;2.60;99.90;;;;;;5031780;28;20501;-78
2021/03/26 05:08:54;;;;;;;10.00;7.35;;;2.70;99.90;;;;;;5032936;28;20057;-78
2021/03/26 05:11:23;;;;;;;8.00;7.07;;;2.80;99.90;;;;;;5032930;28;20096;-78
2021/03/26 05:13:56;;;;;;;7.93;7.13;;;2.90;99.90;;;;;;5032567;28;20091;-78
2021/03/26 05:16:43;;;;;;;8.15;7.25;;;2.70;99.90;;;;;;5030741;28;20284;-78
2021/03/26 05:19:18;;;;;;;9.38;6.70;;;2.60;99.90;;;;;;5020610;28;20044;-78
2021/03/26 05:21:56;;;;;;;9.32;6.68;;;2.50;99.90;;;;;;5013124;28;20030;-78
2021/03/26 05:24:40;;;;;;;9.93;5.97;;;2.40;99.90;;;;;;5012978;28;20026;-78
2021/03/26 05:27:10;;;;;;;11.15;6.95;;;2.30;99.90;;;;;;5012652;28;20036;-78
2021/03/26 05:29:37;;;;;;;12.48;8.60;;;2.10;99.90;;;;;;5012799;28;20126;-78
2021/03/26 05:32:02;;;;;;;10.27;7.95;;;2.00;99.90;;;;;;5012828;28;20100;-78
2021/03/26 05:34:35;;;;;;;11.32;8.75;;;1.90;99.90;;;;;;5011617;28;20510;-78
2021/03/26 05:37:24;;;;;;;10.05;8.00;;;1.70;99.90;;;;;;5012890;28;20030;-78
2021/03/26 05:40:00;;;;;;;12.88;8.07;;;1.70;99.90;;;;;;5029153;28;20079;-78
2021/03/26 05:42:47;;;;;;;10.35;7.72;;;1.80;99.90;;;;;;5030870;28;20374;-78
2021/03/26 05:45:38;;;;;;;11.18;8.27;;;2.00;99.90;;;;;;5032334;28;20033;-78
2021/03/26 05:48:11;;;;;;;9.73;7.28;;;2.10;99.90;;;;;;5032467;28;20380;-78
2021/03/26 05:51:05;;;;;;;10.13;7.90;;;2.10;99.90;;;;;;5028437;28;20388;-79
2021/03/26 05:53:36;;;;;;;12.38;7.28;;;2.20;99.90;;;;;;5015958;28;20029;-79
2021/03/26 05:56:18;;;;;;;10.23;7.45;;;2.20;99.90;;;;;;5017995;28;20747;-78
2021/03/26 05:59:03;;;;;;;10.07;7.10;;;2.20;99.90;;;;;;5014160;28;20029;-79
2021/03/26 06:01:34;;;;;;;9.45;7.45;;;1.90;99.90;;;;;;5016637;28;20029;-78
2021/03/26 06:04:06;;;;;;;13.15;8.43;;;1.80;99.90;;;;;;5019689;28;20105;-79
2021/03/26 06:06:47;;;;;;;9.75;7.13;;;1.90;99.90;;;;;;5014110;28;20037;-76
2021/03/26 06:09:41;;;;;;;10.63;6.75;;;2.10;99.90;;;;;;5021117;28;20032;-78
2021/03/26 06:12:38;;;;;;;12.90;7.63;;;2.10;99.90;;;;;;5050380;28;20032;-78
2021/03/26 06:15:39;;;;;;;11.10;7.20;;;2.10;99.90;;;;;;5020163;28;20501;-78
2021/03/26 06:18:17;;;;;;;10.27;8.32;;;2.20;99.90;;;;;;5028369;28;20512;-78
2021/03/26 06:21:18;;;;;;;14.00;9.38;;;2.30;99.90;;;;;;5027703;28;20057;-78
2021/03/26 06:24:14;;;;;;;14.70;8.98;;;2.40;99.90;;;;;;4973904;28;20054;-78
2021/03/26 06:26:58;;;;;;;36.38;21.80;;;2.70;99.90;;;;;;4974276;28;20034;-79
2021/03/26 06:29:42;;;;;;;34.30;18.52;;;2.90;99.90;;;;;;4974000;28;20059;-79
2021/03/26 06:32:14;;;;;;;35.53;18.27;;;3.20;99.90;;;;;;4951188;28;20061;-78
2021/03/26 06:35:16;;;;;;;25.67;14.65;;;3.40;99.90;;;;;;4973955;28;20486;-79
2021/03/26 06:38:15;;;;;;;21.65;13.95;;;3.50;99.90;;;;;;4971067;28;20478;-79
2021/03/26 06:40:52;;;;;;;26.73;14.57;;;3.60;99.90;;;;;;4971940;28;20054;-79
2021/03/26 06:43:25;;;;;;;29.67;19.58;;;3.70;99.90;;;;;;4973472;28;20418;-78
2021/03/26 06:46:25;;;;;;;28.55;18.92;;;3.80;99.90;;;;;;4973250;28;20047;-79
2021/03/26 06:49:02;;;;;;;16.98;11.35;;;3.90;99.90;;;;;;4974286;28;20043;-78
2021/03/26 06:52:09;;;;;;;12.80;8.93;;;3.90;99.90;;;;;;4973660;28;20050;-78
2021/03/26 06:55:05;;;;;;;16.00;9.95;;;3.80;99.90;;;;;;4972285;28;20043;-78
2021/03/26 06:57:49;;;;;;;16.50;11.60;;;3.80;99.90;;;;;;4973873;28;20078;-78
2021/03/26 07:00:27;;;;;;;17.05;10.20;;;3.70;99.90;;;;;;4990773;28;20060;-78
2021/03/26 07:03:33;;;;;;;15.73;10.70;;;3.70;99.90;;;;;;5030015;28;20049;-79
2021/03/26 07:06:18;;;;;;;15.70;8.63;;;3.60;99.90;;;;;;5020468;28;20037;-78
2021/03/26 07:09:09;;;;;;;36.28;14.43;;;3.80;99.90;;;;;;5030719;28;20045;-78
2021/03/26 07:12:00;;;;;;;27.13;8.80;;;3.90;99.90;;;;;;5033550;28;20021;-78
2021/03/26 07:14:28;;;;;;;14.10;7.50;;;3.80;99.90;;;;;;5029654;28;20377;-79
2021/03/26 07:17:22;;;;;;;8.27;7.28;;;3.80;99.90;;;;;;5034101;28;20113;-76
2021/03/26 07:20:16;;;;;;;8.02;6.80;;;3.80;99.90;;;;;;5033921;28;20060;-78
2021/03/26 07:22:45;;;;;;;26.38;8.48;;;4.10;99.90;;;;;;5035281;28;20068;-78
2021/03/26 07:25:29;;;;;;;14.70;8.48;;;4.30;99.90;;;;;;5034511;28;20029;-78
2021/03/26 07:28:27;;;;;;;9.90;8.02;;;4.50;99.90;;;;;;5034589;28;20034;-78
2021/03/26 07:31:14;;;;;;;10.68;7.18;;;4.90;99.90;;;;;;5034988;28;20053;-78
2021/03/26 07:34:05;;;;;;;7.85;6.55;;;5.10;99.90;;;;;;5034828;28;20021;-78
2021/03/26 07:36:49;;;;;;;7.43;6.70;;;5.50;99.90;;;;;;5034257;28;20025;-79
2021/03/26 07:39:18;;;;;;;7.30;6.25;;;5.80;99.90;;;;;;5033345;28;20567;-79
2021/03/26 07:41:49;;;;;;;8.43;5.95;;;5.90;99.90;;;;;;5034813;28;20033;-78
2021/03/26 07:44:43;;;;;;;7.40;6.60;;;6.20;99.90;;;;;;5034271;28;20083;-78
2021/03/26 07:47:33;;;;;;;8.18;5.68;;;6.40;99.90;;;;;;5034425;28;20034;-78
2021/03/26 07:50:10;;;;;;;12.38;6.50;;;6.60;99.90;;;;;;5034263;28;20018;-78
2021/03/26 07:52:51;;;;;;;8.55;7.18;;;6.80;99.90;;;;;;5034121;28;20020;-78
2021/03/26 07:55:35;;;;;;;10.13;7.10;;;7.10;99.90;;;;;;5034319;28;20021;-78
2021/03/26 07:58:23;;;;;;;10.63;7.22;;;7.30;99.90;;;;;;5034125;28;20030;-78
2021/03/26 08:00:58;;;;;;;8.85;6.57;;;7.60;99.90;;;;;;5034006;28;20029;-78
2021/03/26 08:03:58;;;;;;;10.32;6.95;;;7.90;99.60;;;;;;5034463;28;20440;-78
2021/03/26 08:06:45;;;;;;;8.88;6.80;;;8.30;98.90;;;;;;5033796;28;20044;-79
2021/03/26 08:09:48;;;;;;;11.70;6.90;;;8.60;98.00;;;;;;5034073;28;20096;-78
2021/03/26 08:12:32;;;;;;;9.73;7.05;;;8.90;99.20;;;;;;4989294;28;20043;-79
2021/03/26 08:15:35;;;;;;;10.60;6.40;;;9.10;97.70;;;;;;4973121;28;20027;-78
2021/03/26 08:18:23;;;;;;;81.25;12.85;;;9.60;97.30;;;;;;4973032;28;20047;-78
2021/03/26 08:21:27;;;;;;;15.88;6.68;;;9.70;96.20;;;;;;4986673;28;20037;-79
2021/03/26 08:24:14;;;;;;;8.00;6.10;;;9.80;96.00;;;;;;4992050;28;20046;-79
2021/03/26 08:27:06;;;;;;;7.55;6.18;;;10.20;94.90;;;;;;4992240;28;20089;-79
2021/03/26 08:29:51;;;;;;;24.48;7.47;;;10.50;94.40;;;;;;4975542;28;20524;-79
2021/03/26 08:32:25;;;;;;;8.50;6.15;;;11.00;95.10;;;;;;4992092;28;20101;-79
2021/03/26 08:35:31;;;;;;;8.38;6.00;;;11.10;94.70;;;;;;4991973;28;20129;-79
2021/03/26 08:38:16;;;;;;;7.63;6.07;;;11.30;93.60;;;;;;4975685;28;20117;-79
2021/03/26 08:41:16;;;;;;;7.32;5.95;;;11.80;93.00;;;;;;4992195;28;20057;-79
2021/03/26 08:43:50;;;;;;;9.50;6.03;;;12.20;92.10;;;;;;4989118;28;20137;-79
2021/03/26 08:46:36;;;;;;;9.55;5.57;;;12.90;91.30;;;;;;4991741;28;20030;-79
2021/03/26 08:49:09;;;;;;;9.73;5.60;;;15.90;77.80;;;;;;5011437;28;20033;-79
2021/03/26 08:51:56;;;;;;;12.23;6.03;;;18.50;65.70;;;;;;5033007;28;20036;-79
2021/03/26 08:54:41;;;;;;;7.13;4.85;;;19.80;59.20;;;;;;5033115;28;20044;-78
2021/03/26 08:57:21;;;;;;;5.72;5.13;;;20.80;56.00;;;;;;5033385;28;20469;-79
2021/03/26 09:00:12;;;;;;;11.93;5.38;;;22.50;50.40;;;;;;5033310;28;20029;-79
2021/03/26 09:02:53;;;;;;;8.95;5.65;;;23.50;48.50;;;;;;5032980;28;20044;-79
2021/03/26 09:05:54;;;;;;;3.65;3.20;;;24.50;47.30;;;;;;5032485;28;20128;-79
2021/03/26 09:08:40;;;;;;;3.50;3.20;;;24.30;40.10;;;;;;5027166;28;20052;-79
2021/03/26 09:11:14;;;;;;;2.70;2.50;;;22.60;42.30;;;;;;4991540;28;20577;-79
2021/03/26 09:13:54;;;;;;;3.55;3.08;;;22.20;42.80;;;;;;4991116;28;20145;-79
2021/03/26 09:16:34;;;;;;;3.55;3.25;;;22.80;40.30;;;;;;4991469;28;20498;-79
2021/03/26 09:19:33;;;;;;;4.80;3.15;;;24.10;41.00;;;;;;4974761;28;20081;-79
2021/03/26 09:22:39;;;;;;;2.67;2.47;;;24.80;38.00;;;;;;4991221;28;20759;-79
2021/03/26 09:25:22;;;;;;;3.53;3.22;;;21.70;43.50;;;;;;4952651;28;20496;-79
2021/03/26 09:27:56;;;;;;;4.03;3.63;;;20.50;48.30;;;;;;4952459;29;20042;-79
2021/03/26 09:30:40;;;;;;;3.60;3.30;;;21.00;45.80;;;;;;4952335;28;20051;-79
2021/03/26 09:33:06;;;;;;;3.50;3.20;;;18.90;45.10;;;;;;4936172;29;20038;-79
2021/03/26 09:35:35;;;;;;;4.65;3.80;;;20.80;43.30;;;;;;4936089;28;20031;-79
2021/03/26 09:38:23;;;;;;;5.03;3.72;;;23.60;41.00;;;;;;4952408;28;20038;-79
2021/03/26 09:41:06;;;;;;;10.15;3.55;;;24.20;37.60;;;;;;4952078;29;20027;-79
2021/03/26 09:43:56;;;;;;;3.55;3.20;;;23.60;38.50;;;;;;4952414;28;20035;-79
2021/03/26 09:46:42;;;;;;;6.68;3.25;;;23.10;40.90;;;;;;4952271;29;20525;-79
2021/03/26 09:49:28;;;;;;;4.03;3.72;;;23.30;41.40;;;;;;5003267;28;20037;-79
2021/03/26 09:52:15;;;;;;;7.05;3.72;;;24.40;38.20;;;;;;5010494;28;20496;-80
2021/03/26 09:54:44;;;;;;;3.38;3.08;;;26.30;40.20;;;;;;5010475;28;20052;-79
2021/03/26 09:57:37;;;;;;;3.23;2.93;;;26.70;36.70;;;;;;5010650;28;20044;-79
2021/03/26 10:00:17;;;;;;;5.30;3.38;;;26.80;36.30;;;;;;5010437;28;20056;-79
2021/03/26 10:03:07;;;;;;;3.50;3.15;;;25.60;37.30;;;;;;5031886;28;20132;-80
2021/03/26 10:05:42;;;;;;;4.68;3.40;;;24.10;36.70;;;;;;5032165;28;20504;-80
2021/03/26 10:11:25;;;;;;;5.15;3.17;;;24.10;40.90;;;;;;5029378;28;20120;-80
2021/03/26 10:13:58;;;;;;;5.07;3.85;;;24.70;39.30;;;;;;5032126;28;20034;-80
2021/03/26 10:16:48;;;;;;;5.60;3.38;;;22.50;41.10;;;;;;5032022;28;20072;-80
2021/03/26 10:19:17;;;;;;;4.35;3.13;;;21.30;43.20;;;;;;5032132;28;20033;-80
2021/03/26 10:21:50;;;;;;;5.18;3.35;;;21.00;44.70;;;;;;5032055;28;20026;-80
2021/03/26 10:24:34;;;;;;;5.32;3.13;;;20.30;45.90;;;;;;5030944;28;20171;-80
2021/03/26 10:27:20;;;;;;;7.03;4.05;;;20.70;46.60;;;;;;5032247;28;20104;-80
2021/03/26 10:30:04;;;;;;;3.95;3.33;;;21.20;45.30;;;;;;5031688;28;20046;-80
2021/03/26 10:32:33;;;;;;;5.05;3.25;;;22.40;42.10;;;;;;5031668;28;20025;-80
2021/03/26 10:35:09;;;;;;;4.65;4.10;;;22.90;42.40;;;;;;5032065;28;20030;-80
2021/03/26 10:37:43;;;;;;;4.57;3.30;;;22.50;44.40;;;;;;5032037;28;20400;-80
2021/03/26 10:40:32;;;;;;;3.80;3.50;;;22.10;43.40;;;;;;5030571;28;20374;-80
2021/03/26 10:43:08;;;;;;;4.13;3.22;;;21.60;45.00;;;;;;5031666;28;20091;-80
2021/03/26 10:45:53;;;;;;;3.67;3.17;;;21.80;45.00;;;;;;5031539;28;20060;-80
2021/03/26 10:48:38;;;;;;;5.13;3.53;;;22.30;44.20;;;;;;5032092;28;20029;-80
2021/03/26 10:51:29;;;;;;;4.30;3.90;;;22.50;44.40;;;;;;5032095;28;20018;-80
2021/03/26 10:54:07;;;;;;;6.00;4.47;;;22.40;46.00;;;;;;5030443;28;20078;-80
2021/03/26 10:56:46;;;;;;;4.05;3.40;;;21.70;45.70;;;;;;5031925;28;20032;-80
2021/03/26 10:59:29;;;;;;;4.72;3.78;;;21.60;46.30;;;;;;5031695;28;20036;-80
2021/03/26 11:02:24;;;;;;;3.58;3.28;;;22.80;45.80;;;;;;5031555;28;20030;-80
2021/03/26 11:05:03;;;;;;;4.65;3.47;;;21.80;44.80;;;;;;5035190;28;20129;-80
2021/03/26 11:07:36;;;;;;;19.58;5.25;;;22.10;44.70;;;;;;5035043;28;20033;-80
2021/03/26 11:10:04;;;;;;;3.80;3.40;;;22.50;45.40;;;;;;5035194;28;20576;-80
2021/03/26 11:12:36;;;;;;;4.05;3.75;;;22.60;44.60;;;;;;5033821;28;20156;-80
2021/03/26 11:15:23;;;;;;;4.90;3.47;;;24.20;42.30;;;;;;5034657;28;20117;-80
2021/03/26 11:18:04;;;;;;;4.03;3.65;;;23.20;43.60;;;;;;5034984;28;20388;-80
2021/03/26 11:20:39;;;;;;;4.25;3.67;;;23.10;44.30;;;;;;5035179;28;20022;-80
2021/03/26 11:23:26;;;;;;;3.92;3.55;;;23.80;42.30;;;;;;5034936;28;20033;-80
2021/03/26 11:25:57;;;;;;;4.43;3.45;;;24.30;43.20;;;;;;5034782;28;20030;-80
2021/03/26 11:28:24;;;;;;;4.70;3.83;;;24.40;41.20;;;;;;5034945;28;20030;-80
2021/03/26 11:31:09;;;;;;;5.15;3.47;;;26.70;39.20;;;;;;5034086;28;20120;-81
2021/03/26 11:33:49;;;;;;;8.23;4.75;;;27.20;37.90;;;;;;5034827;28;20021;-81
2021/03/26 11:36:23;;;;;;;4.32;3.92;;;29.90;37.20;;;;;;5034757;28;20060;-80
2021/03/26 11:39:14;;;;;;;4.80;4.35;;;30.50;33.70;;;;;;5034526;28;20112;-81
2021/03/26 11:41:50;;;;;;;4.07;3.70;;;29.00;34.80;;;;;;5034910;28;20026;-81
2021/03/26 11:44:18;;;;;;;5.63;4.78;;;27.30;36.00;;;;;;5034479;28;20041;-81
2021/03/26 11:46:54;;;;;;;5.10;4.70;;;29.00;36.80;;;;;;5034326;28;20480;-81
2021/03/26 11:49:30;;;;;;;5.38;3.92;;;28.10;35.70;;;;;;5033246;28;20034;-81
2021/03/26 11:52:01;;;;;;;4.68;4.28;;;27.60;36.40;;;;;;5034158;28;20056;-81
2021/03/26 11:54:55;;;;;;;4.85;4.20;;;27.60;37.60;;;;;;5034585;28;20495;-81
2021/03/26 11:57:34;;;;;;;5.85;5.10;;;26.50;38.20;;;;;;5034431;28;20032;-81
2021/03/26 12:00:23;;;;;;;6.53;4.75;;;24.80;42.30;;;;;;5034105;28;20056;-81
2021/03/26 12:03:11;;;;;;;14.07;8.18;;;24.70;41.60;;;;;;5034093;28;20022;-81
2021/03/26 12:06:01;;;;;;;4.57;4.18;;;25.90;40.50;;;;;;5034228;28;20374;-81
2021/03/26 12:08:45;;;;;;;;;;;27.90;38.30;;;;;;5034689;28;20159;-81
2021/03/26 12:11:18;;;;;;;24.05;5.85;;;29.90;35.00;;;;;;5034099;28;19905;-81
2021/03/26 12:13:56;;;;;;;5.05;4.55;;;30.30;37.20;;;;;;5033288;28;20079;-81
2021/03/26 12:16:29;;;;;;;7.13;4.03;;;29.70;38.40;;;;;;5033960;28;20030;-81
2021/03/26 12:19:00;;;;;;;4.50;4.10;;;28.40;36.00;;;;;;5033862;28;20064;-81
2021/03/26 12:21:28;;;;;;;4.78;4.38;;;28.40;36.00;;;;;;5033851;28;20427;-81
2021/03/26 12:24:17;;;;;;;6.47;4.10;;;27.80;37.70;;;;;;5033642;28;20029;-81
2021/03/26 12:27:18;;;;;;;6.07;4.20;;;27.80;39.70;;;;;;5033312;28;20030;-81
2021/03/26 12:29:50;;;;;;;5.07;4.00;;;27.20;39.10;;;;;;5022639;28;20048;-81
2021/03/26 12:32:31;;;;;;;4.68;4.18;;;25.80;40.50;;;;;;5033509;28;20021;-81
2021/03/26 12:35:21;;;;;;;9.48;4.60;;;24.70;43.40;;;;;;5033486;28;20029;-81
2021/03/26 12:37:53;;;;;;;4.78;3.67;;;24.10;44.40;;;;;;5032317;28;20493;-81
2021/03/26 12:40:40;;;;;;;5.45;4.63;;;23.50;43.50;;;;;;5033584;28;20037;-81
2021/03/26 12:43:15;;;;;;;6.78;4.50;;;23.50;43.00;;;;;;5033113;28;20030;-81
2021/03/26 12:46:11;;;;;;;6.10;4.93;;;23.20;45.20;;;;;;5032170;28;20047;-81
2021/03/26 12:49:04;;;;;;;20.08;4.18;;;22.40;47.40;;;;;;5033416;28;20507;-81
2021/03/26 12:51:50;;;;;;;8.63;4.00;;;22.80;46.70;;;;;;5033109;28;20045;-80
2021/03/26 12:54:15;;;;;;;4.38;3.97;;;22.60;45.70;;;;;;5033302;28;20033;-80
2021/03/26 12:56:47;;;;;;;4.18;3.70;;;22.60;48.20;;;;;;5032860;28;20033;-80
2021/03/26 12:59:47;;;;;;;4.65;4.13;;;22.80;47.80;;;;;;5033117;28;20021;-80
2021/03/26 13:02:13;;;;;;;;;;;22.80;50.60;;;;;;4972596;28;20054;-80
2021/03/26 13:05:01;;;;;;;5.82;4.78;;;23.00;51.90;;;;;;4955865;28;19910;-80
2021/03/26 13:07:32;;;;;;;5.13;4.15;;;23.60;50.20;;;;;;4961881;28;20047;-80
2021/03/26 13:10:25;;;;;;;5.60;4.22;;;23.30;51.70;;;;;;4971856;28;20045;-80
2021/03/26 13:12:52;;;;;;;7.18;3.80;;;23.00;51.30;;;;;;4971905;28;20093;-80
2021/03/26 13:15:23;;;;;;;6.13;4.10;;;23.40;49.50;;;;;;4971849;28;20183;-80
2021/03/26 13:18:05;;;;;;;5.28;4.32;;;24.20;49.60;;;;;;4971968;28;20065;-80
2021/03/26 13:20:46;;;;;;;5.05;4.18;;;25.00;46.50;;;;;;4972013;28;20035;-80
2021/03/26 13:23:19;;;;;;;5.82;4.38;;;25.70;45.90;;;;;;4971827;28;20035;-80
2021/03/26 13:25:56;;;;;;;7.50;5.32;;;25.60;45.50;;;;;;4970949;28;20039;-81
2021/03/26 13:28:28;;;;;;;5.07;4.55;;;24.20;46.90;;;;;;4971836;28;20514;-80
2021/03/26 13:31:05;;;;;;;9.07;4.80;;;23.60;48.60;;;;;;4971461;28;20045;-80
2021/03/26 13:33:45;;;;;;;12.57;4.78;;;23.70;51.40;;;;;;4971802;28;20398;-80
2021/03/26 13:36:16;;;;;;;5.80;4.70;;;24.70;49.60;;;;;;4971711;28;20474;-80
2021/03/26 13:38:41;;;;;;;7.72;5.00;;;28.30;44.80;;;;;;5025393;28;20041;-81
2021/03/26 13:41:34;;;;;;;4.65;4.18;;;30.30;42.00;;;;;;5032152;28;20040;-81
2021/03/26 13:44:31;;;;;;;4.95;4.55;;;29.80;40.20;;;;;;5031207;28;20447;-81
2021/03/26 13:47:29;;;;;;;6.05;4.68;;;29.00;41.20;;;;;;5032359;28;20481;-81
2021/03/26 13:50:21;;;;;;;5.45;4.88;;;28.20;43.30;;;;;;5032361;28;20240;-81